Time;durP1;ratioP1;P1;durP2;ratioP2;P2;SDS_P1;SDS_P2;PMS_P1;PMS_P2;Temp;Humidity;BMP_temperature;BMP_pressure;BME280_temperature;BME280_humidity;BME280_pressure;Samples;Min_cycle;Max_cycle;Signal;HPM_P1;HPM_P2
2021/11/18 00:01:02;;;;;;;0.32;0.30;;;;;;;;;;4180057;28;20068;-51
2021/11/18 00:03:04;;;;;;;0.57;0.47;;;;;;;;;;4179976;28;20057;-51
2021/11/18 00:05:07;;;;;;;0.50;0.30;;;;;;;;;;4179770;28;20425;-51
2021/11/18 00:07:08;;;;;;;0.30;0.30;;;;;;;;;;4179896;28;20057;-47
2021/11/18 00:09:09;;;;;;;0.50;0.32;;;;;;;;;;4161525;28;20092;-51
2021/11/18 00:11:13;;;;;;;0.28;0.20;;;;;;;;;;4179800;28;20057;-48
2021/11/18 00:13:16;;;;;;;0.32;0.25;;;;;;;;;;4179665;28;20327;-52
2021/11/18 00:15:18;;;;;;;0.50;0.30;;;;;;;;;;4179677;28;20060;-47
2021/11/18 00:17:19;;;;;;;0.30;0.30;;;;;;;;;;4179674;28;20442;-49
2021/11/18 00:19:20;;;;;;;0.20;0.20;;;;;;;;;;4179661;28;20064;-49
2021/11/18 00:21:25;;;;;;;0.57;0.30;;;;;;;;;;4179406;28;20049;-48
2021/11/18 00:23:29;;;;;;;0.30;0.28;;;;;;;;;;4179261;28;20122;-49
2021/11/18 00:25:31;;;;;;;0.60;0.30;;;;;;;;;;4179585;28;20397;-47
2021/11/18 00:27:32;;;;;;;0.50;0.30;;;;;;;;;;4179728;28;20103;-49
2021/11/18 00:29:34;;;;;;;0.25;0.20;;;;;;;;;;4179507;28;20547;-51
2021/11/18 00:31:38;;;;;;;0.60;0.38;;;;;;;;;;4179620;28;20060;-47
2021/11/18 00:33:40;;;;;;;0.20;0.20;;;;;;;;;;4179496;28;20386;-47
2021/11/18 00:35:41;;;;;;;1.05;0.45;;;;;;;;;;4179364;28;20404;-48
2021/11/18 00:37:44;;;;;;;0.22;0.20;;;;;;;;;;4179344;28;20067;-48
2021/11/18 00:39:45;;;;;;;0.90;0.30;;;;;;;;;;4179489;28;20060;-52
2021/11/18 00:41:46;;;;;;;0.70;0.30;;;;;;;;;;4178484;28;20065;-49
2021/11/18 00:43:49;;;;;;;0.45;0.30;;;;;;;;;;4179631;28;20057;-50
2021/11/18 00:45:52;;;;;;;0.43;0.20;;;;;;;;;;4161760;28;20053;-46
2021/11/18 00:47:54;;;;;;;0.25;0.10;;;;;;;;;;4161826;28;20060;-46
2021/11/18 00:49:56;;;;;;;0.45;0.22;;;;;;;;;;4179402;28;20516;-48
2021/11/18 00:51:57;;;;;;;0.30;0.20;;;;;;;;;;4179689;28;20066;-47
2021/11/18 00:54:03;;;;;;;0.28;0.20;;;;;;;;;;4164301;28;20127;-48
2021/11/18 00:56:05;;;;;;;0.30;0.20;;;;;;;;;;4164609;28;20454;-49
2021/11/18 00:58:07;;;;;;;0.50;0.20;;;;;;;;;;4180980;28;20528;-49
2021/11/18 01:00:12;;;;;;;0.20;0.20;;;;;;;;;;4164452;28;20057;-47
2021/11/18 01:02:16;;;;;;;0.30;0.30;;;;;;;;;;4182548;28;20107;-47
2021/11/18 01:04:20;;;;;;;0.70;0.40;;;;;;;;;;4164568;28;20058;-47
2021/11/18 01:06:21;;;;;;;0.10;0.10;;;;;;;;;;4164373;28;20053;-49
2021/11/18 01:08:23;;;;;;;0.30;0.30;;;;;;;;;;4181201;28;20515;-50
2021/11/18 01:10:28;;;;;;;1.05;0.30;;;;;;;;;;4164803;28;20053;-47
2021/11/18 01:12:30;;;;;;;0.52;0.22;;;;;;;;;;4164278;28;20080;-51
2021/11/18 01:14:31;;;;;;;0.40;0.20;;;;;;;;;;4164083;28;20046;-50
2021/11/18 01:16:34;;;;;;;0.20;0.20;;;;;;;;;;4181064;28;20060;-49
2021/11/18 01:18:36;;;;;;;0.22;0.17;;;;;;;;;;4164065;28;20137;-47
2021/11/18 01:20:38;;;;;;;0.22;0.22;;;;;;;;;;4180550;28;20378;-48
2021/11/18 01:22:42;;;;;;;0.57;0.20;;;;;;;;;;4181477;28;20175;-52
2021/11/18 01:24:45;;;;;;;0.30;0.30;;;;;;;;;;4164251;28;20060;-49
2021/11/18 01:26:52;;;;;;;0.30;0.20;;;;;;;;;;4180932;28;20171;-48
2021/11/18 01:29:01;;;;;;;0.50;0.30;;;;;;;;;;4180410;28;20493;-46
2021/11/18 01:31:03;;;;;;;0.40;0.30;;;;;;;;;;4164101;28;20510;-46
2021/11/18 01:33:07;;;;;;;0.20;0.20;;;;;;;;;;4163895;28;20057;-46
2021/11/18 01:35:13;;;;;;;0.60;0.28;;;;;;;;;;4164112;28;20395;-47
2021/11/18 01:37:14;;;;;;;0.38;0.20;;;;;;;;;;4180752;28;20060;-49
2021/11/18 01:39:15;;;;;;;0.57;0.40;;;;;;;;;;4180153;28;20053;-49
2021/11/18 01:41:19;;;;;;;0.57;0.20;;;;;;;;;;4163894;28;20521;-51
2021/11/18 01:43:23;;;;;;;0.70;0.30;;;;;;;;;;4163798;28;20053;-50
2021/11/18 01:45:27;;;;;;;0.32;0.20;;;;;;;;;;4163950;28;20053;-47
2021/11/18 01:47:29;;;;;;;0.28;0.10;;;;;;;;;;4180518;28;20083;-46
2021/11/18 01:49:31;;;;;;;0.45;0.30;;;;;;;;;;4180357;28;20057;-46
2021/11/18 01:51:40;;;;;;;0.52;0.30;;;;;;;;;;4180168;28;20053;-49
2021/11/18 01:53:44;;;;;;;0.20;0.20;;;;;;;;;;4147595;28;20053;-49
2021/11/18 01:55:48;;;;;;;0.85;0.40;;;;;;;;;;4180119;28;20053;-46
2021/11/18 01:57:51;;;;;;;0.93;0.30;;;;;;;;;;4197842;28;20147;-50
2021/11/18 02:00:34;;;;;;;0.25;0.25;;;;;;;;;;4197869;28;20390;-46
2021/11/18 02:02:35;;;;;;;0.40;0.20;;;;;;;;;;4163263;28;20363;-48
2021/11/18 02:04:54;;;;;;;1.08;0.55;;;;;;;;;;4197928;28;20048;-50
2021/11/18 02:07:02;;;;;;;0.17;0.17;;;;;;;;;;4179965;28;20080;-52
2021/11/18 02:09:09;;;;;;;0.20;0.20;;;;;;;;;;4195959;28;20082;-48
2021/11/18 02:11:24;;;;;;;0.25;0.20;;;;;;;;;;4163737;28;20061;-46
2021/11/18 02:13:25;;;;;;;0.17;0.17;;;;;;;;;;4163314;28;20099;-47
2021/11/18 02:15:35;;;;;;;0.20;0.20;;;;;;;;;;4179719;28;20045;-51
2021/11/18 02:17:36;;;;;;;0.30;0.28;;;;;;;;;;4196289;28;20060;-52
2021/11/18 02:19:45;;;;;;;0.28;0.20;;;;;;;;;;4180083;28;20118;-49
2021/11/18 02:21:48;;;;;;;0.25;0.20;;;;;;;;;;4197447;28;20060;-51
2021/11/18 02:24:03;;;;;;;0.32;0.30;;;;;;;;;;4179586;28;20103;-46
2021/11/18 02:26:07;;;;;;;0.28;0.20;;;;;;;;;;4179755;28;20563;-49
2021/11/18 02:28:08;;;;;;;0.13;0.10;;;;;;;;;;4179852;28;20115;-49
2021/11/18 02:30:10;;;;;;;0.40;0.30;;;;;;;;;;4163375;28;20049;-51
2021/11/18 02:32:14;;;;;;;0.70;0.40;;;;;;;;;;4179651;28;20496;-50
2021/11/18 02:34:39;;;;;;;0.98;0.20;;;;;;;;;;4179462;28;20382;-52
2021/11/18 02:36:40;;;;;;;0.80;0.20;;;;;;;;;;4163456;28;20053;-51
2021/11/18 02:38:42;;;;;;;0.28;0.20;;;;;;;;;;4196955;28;20106;-50
2021/11/18 02:40:49;;;;;;;0.40;0.40;;;;;;;;;;4179652;28;20222;-48
2021/11/18 02:42:53;;;;;;;0.25;0.20;;;;;;;;;;4197457;28;20063;-52
2021/11/18 02:44:56;;;;;;;0.30;0.20;;;;;;;;;;4179492;28;20060;-51
2021/11/18 02:46:58;;;;;;;0.65;0.20;;;;;;;;;;4179572;28;20064;-51
2021/11/18 02:49:00;;;;;;;0.38;0.20;;;;;;;;;;4179581;28;20179;-49
2021/11/18 02:51:05;;;;;;;0.20;0.20;;;;;;;;;;4195884;28;20437;-51
2021/11/18 02:53:08;;;;;;;0.22;0.20;;;;;;;;;;4189518;28;20061;-48
2021/11/18 02:55:18;;;;;;;0.22;0.22;;;;;;;;;;4160229;28;20406;-50
2021/11/18 02:57:20;;;;;;;0.38;0.20;;;;;;;;;;4129465;28;20113;-52
2021/11/18 02:59:22;;;;;;;0.20;0.20;;;;;;;;;;4179149;28;20436;-49
2021/11/18 03:01:32;;;;;;;0.43;0.20;;;;;;;;;;4162770;28;20366;-46
2021/11/18 03:03:36;;;;;;;0.30;0.20;;;;;;;;;;4162663;28;20501;-47
2021/11/18 03:05:37;;;;;;;0.50;0.30;;;;;;;;;;4146316;28;20408;-47
2021/11/18 03:07:39;;;;;;;0.52;0.20;;;;;;;;;;4162155;28;20485;-49
2021/11/18 03:09:40;;;;;;;0.45;0.20;;;;;;;;;;4162597;28;20410;-46
2021/11/18 03:11:41;;;;;;;0.20;0.10;;;;;;;;;;4180273;28;20095;-49
2021/11/18 03:13:43;;;;;;;0.20;0.20;;;;;;;;;;4178778;28;20052;-46
2021/11/18 03:15:45;;;;;;;0.35;0.25;;;;;;;;;;4145606;28;20054;-49
2021/11/18 03:17:47;;;;;;;0.30;0.20;;;;;;;;;;4180129;28;20566;-51
2021/11/18 03:19:55;;;;;;;0.45;0.20;;;;;;;;;;4162637;28;20057;-48
2021/11/18 03:21:57;;;;;;;0.50;0.30;;;;;;;;;;4162409;28;20072;-49
2021/11/18 03:23:58;;;;;;;0.22;0.17;;;;;;;;;;4161972;28;20119;-46
2021/11/18 03:25:59;;;;;;;0.20;0.20;;;;;;;;;;4162743;28;20091;-51
2021/11/18 03:28:01;;;;;;;0.20;0.10;;;;;;;;;;4162482;28;20061;-48
2021/11/18 03:30:05;;;;;;;0.40;0.20;;;;;;;;;;4179028;28;20052;-47
2021/11/18 03:32:07;;;;;;;0.52;0.20;;;;;;;;;;4162382;28;20053;-49
2021/11/18 03:34:13;;;;;;;0.50;0.20;;;;;;;;;;4145642;28;20383;-50
2021/11/18 03:36:18;;;;;;;0.40;0.28;;;;;;;;;;4162507;28;20103;-51
2021/11/18 03:38:26;;;;;;;0.25;0.20;;;;;;;;;;4161978;28;20087;-49
2021/11/18 03:40:39;;;;;;;0.35;0.20;;;;;;;;;;4179036;28;20437;-49
2021/11/18 03:42:42;;;;;;;0.40;0.20;;;;;;;;;;4178570;28;20528;-52
2021/11/18 03:44:47;;;;;;;0.68;0.30;;;;;;;;;;4178761;28;20410;-51
2021/11/18 03:46:55;;;;;;;0.20;0.20;;;;;;;;;;4179969;28;20485;-48
2021/11/18 03:48:57;;;;;;;0.38;0.20;;;;;;;;;;4162193;28;20386;-50
2021/11/18 03:50:59;;;;;;;0.10;0.10;;;;;;;;;;4178586;28;20053;-49
2021/11/18 03:53:01;;;;;;;0.28;0.15;;;;;;;;;;4161612;28;20076;-48
2021/11/18 03:55:06;;;;;;;0.63;0.20;;;;;;;;;;4162053;28;20383;-51
2021/11/18 03:57:08;;;;;;;0.08;0.08;;;;;;;;;;4178905;28;20057;-49
2021/11/18 03:59:20;;;;;;;0.28;0.25;;;;;;;;;;4162173;28;20061;-46
2021/11/18 04:01:21;;;;;;;0.35;0.20;;;;;;;;;;4178553;28;20457;-49
2021/11/18 04:03:23;;;;;;;0.38;0.10;;;;;;;;;;4179622;28;20056;-50
2021/11/18 04:05:24;;;;;;;0.30;0.20;;;;;;;;;;4179716;28;20045;-52
2021/11/18 04:07:27;;;;;;;0.20;0.10;;;;;;;;;;4179912;28;20065;-48
2021/11/18 04:09:29;;;;;;;0.30;0.20;;;;;;;;;;4179498;28;20156;-49
2021/11/18 04:11:31;;;;;;;1.00;0.13;;;;;;;;;;4179639;28;20331;-51
2021/11/18 04:13:37;;;;;;;0.98;0.15;;;;;;;;;;4162153;28;20160;-47
2021/11/18 04:15:43;;;;;;;0.47;0.20;;;;;;;;;;4161966;28;20057;-49
2021/11/18 04:17:50;;;;;;;0.20;0.20;;;;;;;;;;4146291;28;20062;-49
2021/11/18 04:19:52;;;;;;;0.28;0.20;;;;;;;;;;4162103;28;20451;-53
2021/11/18 04:21:55;;;;;;;0.10;0.08;;;;;;;;;;4178208;28;20060;-48
2021/11/18 04:23:56;;;;;;;0.30;0.28;;;;;;;;;;4161532;28;20111;-46
2021/11/18 04:25:57;;;;;;;0.40;0.30;;;;;;;;;;4162238;28;20100;-48
2021/11/18 04:27:59;;;;;;;0.20;0.10;;;;;;;;;;4164597;28;20058;-48
2021/11/18 04:30:01;;;;;;;0.10;0.10;;;;;;;;;;4164938;28;20390;-50
2021/11/18 04:32:18;;;;;;;0.10;0.10;;;;;;;;;;4182653;28;20114;-51
2021/11/18 04:34:23;;;;;;;0.40;0.20;;;;;;;;;;4164997;28;20073;-49
2021/11/18 04:36:26;;;;;;;0.40;0.20;;;;;;;;;;4164946;28;20438;-49
2021/11/18 04:38:28;;;;;;;0.20;0.20;;;;;;;;;;4181046;28;20163;-48
2021/11/18 04:40:32;;;;;;;0.20;0.20;;;;;;;;;;4182953;28;20115;-47
2021/11/18 04:42:33;;;;;;;0.57;0.25;;;;;;;;;;4182626;28;20103;-46
2021/11/18 04:44:48;;;;;;;0.13;0.13;;;;;;;;;;4164944;28;20456;-50
2021/11/18 04:46:50;;;;;;;0.75;0.10;;;;;;;;;;4164759;28;20068;-51
2021/11/18 04:48:52;;;;;;;0.20;0.20;;;;;;;;;;4164997;28;20103;-49
2021/11/18 04:50:53;;;;;;;0.10;0.10;;;;;;;;;;4164734;28;20062;-52
2021/11/18 04:52:55;;;;;;;0.30;0.10;;;;;;;;;;4181848;28;20156;-49
2021/11/18 04:54:58;;;;;;;0.57;0.30;;;;;;;;;;4180865;28;20103;-51
2021/11/18 04:57:01;;;;;;;0.10;0.10;;;;;;;;;;4164554;28;20429;-47
2021/11/18 04:59:04;;;;;;;0.10;0.10;;;;;;;;;;4180990;28;20401;-51
2021/11/18 05:01:08;;;;;;;0.32;0.22;;;;;;;;;;4164627;28;20061;-51
2021/11/18 05:03:09;;;;;;;0.22;0.15;;;;;;;;;;4164764;28;20111;-52
2021/11/18 05:05:11;;;;;;;0.20;0.10;;;;;;;;;;4164621;28;20053;-50
2021/11/18 05:07:13;;;;;;;0.22;0.20;;;;;;;;;;4164814;28;20053;-50
2021/11/18 05:09:14;;;;;;;0.20;0.20;;;;;;;;;;4164163;28;20111;-51
2021/11/18 05:11:17;;;;;;;0.20;0.20;;;;;;;;;;4164256;28;20484;-50
2021/11/18 05:13:21;;;;;;;0.30;0.20;;;;;;;;;;4164252;28;20123;-50
2021/11/18 05:15:34;;;;;;;0.50;0.20;;;;;;;;;;4181931;28;20072;-47
2021/11/18 05:17:35;;;;;;;0.30;0.20;;;;;;;;;;4180704;28;20053;-48
2021/11/18 05:19:37;;;;;;;0.10;0.10;;;;;;;;;;4180751;28;20106;-52
2021/11/18 05:21:41;;;;;;;0.32;0.30;;;;;;;;;;4181939;28;20158;-53
2021/11/18 05:23:43;;;;;;;0.08;0.08;;;;;;;;;;4163694;28;20531;-48
2021/11/18 05:25:45;;;;;;;0.50;0.22;;;;;;;;;;4181924;28;20064;-50
2021/11/18 05:27:46;;;;;;;0.10;0.10;;;;;;;;;;4180325;28;20069;-52
2021/11/18 05:29:48;;;;;;;0.28;0.10;;;;;;;;;;4180694;28;20151;-48
2021/11/18 05:31:49;;;;;;;0.30;0.22;;;;;;;;;;4182198;28;20056;-48
2021/11/18 05:34:10;;;;;;;0.20;0.10;;;;;;;;;;4164148;28;20135;-49
2021/11/18 05:36:14;;;;;;;0.40;0.20;;;;;;;;;;4164276;28;20053;-46
2021/11/18 05:38:15;;;;;;;0.60;0.38;;;;;;;;;;4179705;28;20080;-50
2021/11/18 05:40:22;;;;;;;1.58;0.10;;;;;;;;;;4163752;28;20386;-48
2021/11/18 05:42:24;;;;;;;0.43;0.10;;;;;;;;;;4147788;28;20050;-50
2021/11/18 05:44:27;;;;;;;0.20;0.17;;;;;;;;;;4147808;28;20061;-53
2021/11/18 05:46:31;;;;;;;0.20;0.10;;;;;;;;;;4180368;28;20061;-49
2021/11/18 05:48:32;;;;;;;0.35;0.20;;;;;;;;;;4180531;28;20057;-48
2021/11/18 05:50:35;;;;;;;0.13;0.10;;;;;;;;;;4181624;28;20448;-47
2021/11/18 05:52:37;;;;;;;0.10;0.10;;;;;;;;;;4163224;28;20419;-47
2021/11/18 05:54:41;;;;;;;0.43;0.13;;;;;;;;;;4180355;28;20074;-49
2021/11/18 05:56:45;;;;;;;0.43;0.10;;;;;;;;;;4163811;28;20053;-48
2021/11/18 05:58:48;;;;;;;0.40;0.20;;;;;;;;;;4147906;28;20134;-47
2021/11/18 06:00:51;;;;;;;0.30;0.20;;;;;;;;;;4163585;28;20061;-47
2021/11/18 06:02:55;;;;;;;0.40;0.25;;;;;;;;;;4180306;28;20061;-47
2021/11/18 06:04:57;;;;;;;0.63;0.20;;;;;;;;;;4163479;28;20050;-48
2021/11/18 06:06:59;;;;;;;0.10;0.10;;;;;;;;;;4180286;28;20056;-49
2021/11/18 06:09:03;;;;;;;0.20;0.10;;;;;;;;;;4180995;28;20056;-48
2021/11/18 06:11:06;;;;;;;0.47;0.28;;;;;;;;;;4180079;28;20057;-48
2021/11/18 06:13:08;;;;;;;0.40;0.20;;;;;;;;;;4163393;28;20057;-49
2021/11/18 06:15:12;;;;;;;0.15;0.10;;;;;;;;;;4181058;28;20053;-48
2021/11/18 06:17:13;;;;;;;0.17;0.10;;;;;;;;;;4163421;28;20406;-47
2021/11/18 06:19:15;;;;;;;0.43;0.10;;;;;;;;;;4163181;28;20495;-49
2021/11/18 06:21:16;;;;;;;0.35;0.20;;;;;;;;;;4161323;28;20053;-50
2021/11/18 06:23:18;;;;;;;0.63;0.30;;;;;;;;;;4149362;28;20054;-47
2021/11/18 06:25:23;;;;;;;0.10;0.10;;;;;;;;;;4153245;28;20061;-48
2021/11/18 06:27:25;;;;;;;0.30;0.17;;;;;;;;;;4149207;28;20391;-48
2021/11/18 06:29:30;;;;;;;0.10;0.10;;;;;;;;;;4139286;28;20123;-51
2021/11/18 06:31:32;;;;;;;0.65;0.10;;;;;;;;;;4162795;28;20103;-48
2021/11/18 06:33:34;;;;;;;0.38;0.20;;;;;;;;;;4158811;28;20053;-50
2021/11/18 06:35:36;;;;;;;0.90;0.28;;;;;;;;;;4168683;28;20045;-47
2021/11/18 06:37:37;;;;;;;0.20;0.20;;;;;;;;;;4150337;28;20062;-51
2021/11/18 06:39:40;;;;;;;0.03;0.03;;;;;;;;;;4162669;28;20093;-49
2021/11/18 06:41:43;;;;;;;0.20;0.10;;;;;;;;;;4163931;28;20053;-54
2021/11/18 06:43:44;;;;;;;0.10;0.10;;;;;;;;;;4162374;28;20120;-47
2021/11/18 06:45:49;;;;;;;0.50;0.20;;;;;;;;;;4146669;28;20061;-51
2021/11/18 06:47:53;;;;;;;0.25;0.17;;;;;;;;;;4125174;28;20058;-51
2021/11/18 06:49:54;;;;;;;0.47;0.20;;;;;;;;;;4160528;28;20056;-52
2021/11/18 06:51:56;;;;;;;0.10;0.10;;;;;;;;;;4164151;28;20053;-52
2021/11/18 06:53:58;;;;;;;0.17;0.10;;;;;;;;;;4168656;28;20099;-49
2021/11/18 06:56:04;;;;;;;0.40;0.25;;;;;;;;;;4150073;28;20061;-53
2021/11/18 06:58:06;;;;;;;0.30;0.15;;;;;;;;;;4159143;28;20100;-48
2021/11/18 07:00:10;;;;;;;0.30;0.20;;;;;;;;;;4160821;28;20062;-46
2021/11/18 07:02:12;;;;;;;0.50;0.20;;;;;;;;;;4135916;28;20066;-47
2021/11/18 07:04:13;;;;;;;0.98;0.40;;;;;;;;;;4155939;28;20057;-49
2021/11/18 07:06:17;;;;;;;0.50;0.40;;;;;;;;;;4131812;28;20124;-47
2021/11/18 07:08:19;;;;;;;3.53;0.68;;;;;;;;;;4153963;28;20391;-50
2021/11/18 07:10:24;;;;;;;2.72;1.05;;;;;;;;;;4134565;28;20062;-52
2021/11/18 07:12:42;;;;;;;2.03;1.05;;;;;;;;;;4155603;28;20127;-49
2021/11/18 07:14:44;;;;;;;3.17;0.90;;;;;;;;;;4150571;28;20509;-53
2021/11/18 07:16:46;;;;;;;5.32;2.13;;;;;;;;;;4142977;28;20548;-50
2021/11/18 07:18:51;;;;;;;4.85;1.63;;;;;;;;;;4121029;28;20124;-54
2021/11/18 07:20:55;;;;;;;5.43;1.75;;;;;;;;;;4155775;28;20049;-50
2021/11/18 07:22:58;;;;;;;6.28;2.40;;;;;;;;;;4146076;28;20123;-51
2021/11/18 07:25:12;;;;;;;4.20;2.10;;;;;;;;;;4160742;28;20057;-45
2021/11/18 07:27:15;;;;;;;5.90;2.75;;;;;;;;;;4142399;28;20115;-50
2021/11/18 07:29:16;;;;;;;5.85;2.53;;;;;;;;;;4165736;28;20352;-50
2021/11/18 07:31:18;;;;;;;9.93;3.20;;;;;;;;;;4139946;28;20061;-47
2021/11/18 07:33:24;;;;;;;7.85;2.80;;;;;;;;;;4144042;28;20060;-50
2021/11/18 07:35:26;;;;;;;8.27;3.15;;;;;;;;;;4147166;28;20150;-49
2021/11/18 07:37:28;;;;;;;6.70;2.97;;;;;;;;;;4151576;28;20065;-51
2021/11/18 07:39:29;;;;;;;9.02;3.80;;;;;;;;;;4132439;28;20165;-48
2021/11/18 07:41:30;;;;;;;8.07;3.50;;;;;;;;;;4143883;28;20063;-49
2021/11/18 07:44:04;;;;;;;10.00;3.60;;;;;;;;;;4151322;28;20064;-47
2021/11/18 07:46:25;;;;;;;11.00;3.63;;;;;;;;;;4158305;28;20134;-50
2021/11/18 07:48:37;;;;;;;11.80;4.55;;;;;;;;;;4146652;28;20057;-49
2021/11/18 07:50:42;;;;;;;14.27;5.30;;;;;;;;;;4161814;28;20061;-49
2021/11/18 07:52:44;;;;;;;12.18;5.18;;;;;;;;;;4146069;28;20706;-51
2021/11/18 07:54:45;;;;;;;12.98;5.18;;;;;;;;;;4149036;28;20049;-51
2021/11/18 07:56:47;;;;;;;13.48;5.38;;;;;;;;;;4158829;28;20065;-48
2021/11/18 07:58:49;;;;;;;14.57;5.18;;;;;;;;;;4141029;28;20085;-48
2021/11/18 08:00:51;;;;;;;13.45;5.90;;;;;;;;;;4156694;28;20154;-47
2021/11/18 08:02:58;;;;;;;11.40;5.10;;;;;;;;;;4157054;28;20060;-49
2021/11/18 08:05:18;;;;;;;;;;;;;;;;;;4132039;28;20104;-47
2021/11/18 08:07:20;;;;;;;13.55;6.25;;;;;;;;;;4147495;28;19929;-46
2021/11/18 08:09:21;;;;;;;14.68;6.57;;;;;;;;;;4156205;28;20569;-49
2021/11/18 08:11:30;;;;;;;16.02;6.35;;;;;;;;;;4146444;28;20111;-48
2021/11/18 08:13:33;;;;;;;12.77;6.68;;;;;;;;;;4163028;28;20172;-47
2021/11/18 08:15:34;;;;;;;14.15;6.97;;;;;;;;;;4148109;28;20104;-51
2021/11/18 08:17:36;;;;;;;14.63;6.35;;;;;;;;;;4137792;28;20746;-50
2021/11/18 08:19:39;;;;;;;19.52;8.02;;;;;;;;;;4148271;28;20050;-48
2021/11/18 08:21:48;;;;;;;17.35;8.13;;;;;;;;;;4136979;28;20062;-49
2021/11/18 08:23:53;;;;;;;15.48;6.68;;;;;;;;;;4160737;28;20096;-48
2021/11/18 08:26:04;;;;;;;18.80;7.63;;;;;;;;;;4159764;28;20714;-51
2021/11/18 08:28:08;;;;;;;16.05;7.75;;;;;;;;;;4148195;28;20103;-51
2021/11/18 08:30:16;;;;;;;15.60;6.80;;;;;;;;;;4136238;28;20057;-51
2021/11/18 08:32:20;;;;;;;14.57;6.88;;;;;;;;;;4137250;28;20066;-51
2021/11/18 08:34:23;;;;;;;19.10;6.68;;;;;;;;;;4149636;28;20156;-50
2021/11/18 08:36:27;;;;;;;14.70;6.43;;;;;;;;;;4149921;28;20057;-49
2021/11/18 08:38:30;;;;;;;16.77;7.30;;;;;;;;;;4157068;28;20056;-44
2021/11/18 08:40:34;;;;;;;19.15;8.05;;;;;;;;;;4160981;28;20064;-46
2021/11/18 08:42:36;;;;;;;16.55;7.10;;;;;;;;;;4139442;28;20057;-47
2021/11/18 08:44:39;;;;;;;14.18;6.68;;;;;;;;;;4139606;28;20170;-48
2021/11/18 08:46:40;;;;;;;16.27;7.07;;;;;;;;;;4156181;28;20215;-46
2021/11/18 08:48:41;;;;;;;15.27;6.78;;;;;;;;;;4161477;28;20102;-45
2021/11/18 08:50:46;;;;;;;16.15;6.13;;;;;;;;;;4156464;28;20064;-49
2021/11/18 08:52:52;;;;;;;12.48;5.82;;;;;;;;;;4146069;28;20553;-46
2021/11/18 08:54:56;;;;;;;14.35;6.60;;;;;;;;;;4145970;28;20053;-50
2021/11/18 08:56:58;;;;;;;11.90;5.72;;;;;;;;;;4145082;28;20160;-49
2021/11/18 08:59:02;;;;;;;14.23;6.75;;;;;;;;;;4141858;28;20797;-51
2021/11/18 09:01:07;;;;;;;12.65;5.93;;;;;;;;;;4140445;28;20462;-50
2021/11/18 09:03:15;;;;;;;11.88;6.43;;;;;;;;;;4159465;28;20107;-48
2021/11/18 09:05:20;;;;;;;11.82;6.15;;;;;;;;;;4162084;28;20167;-53
2021/11/18 09:07:21;;;;;;;14.00;5.78;;;;;;;;;;4163661;28;20118;-52
2021/11/18 09:09:24;;;;;;;14.82;6.72;;;;;;;;;;4158092;28;20382;-46
2021/11/18 09:11:29;;;;;;;15.57;6.63;;;;;;;;;;4135511;28;20124;-47
2021/11/18 09:13:31;;;;;;;12.50;5.68;;;;;;;;;;4149061;28;20441;-50
2021/11/18 09:15:34;;;;;;;18.38;6.88;;;;;;;;;;4148275;28;20405;-47
2021/11/18 09:17:35;;;;;;;13.77;6.22;;;;;;;;;;4157629;28;20447;-47
2021/11/18 09:19:52;;;;;;;14.90;6.65;;;;;;;;;;4141386;28;20606;-47
2021/11/18 09:21:56;;;;;;;13.15;6.38;;;;;;;;;;4153655;28;20136;-46
2021/11/18 09:24:02;;;;;;;14.80;6.50;;;;;;;;;;4150756;28;20108;-48
2021/11/18 09:26:06;;;;;;;16.67;6.95;;;;;;;;;;4147358;28;20490;-46
2021/11/18 09:28:09;;;;;;;12.23;6.40;;;;;;;;;;4145736;28;20061;-50
2021/11/18 09:30:19;;;;;;;14.15;6.05;;;;;;;;;;4157326;28;20054;-49
2021/11/18 09:32:30;;;;;;;13.82;6.43;;;;;;;;;;4156854;28;20110;-50
2021/11/18 09:34:43;;;;;;;15.40;7.32;;;;;;;;;;4144391;28;20065;-49
2021/11/18 09:36:45;;;;;;;15.55;6.68;;;;;;;;;;4159082;28;20064;-46
2021/11/18 09:38:47;;;;;;;10.95;6.10;;;;;;;;;;4140996;28;20371;-49
2021/11/18 09:41:04;;;;;;;14.85;6.47;;;;;;;;;;4138483;28;20097;-51
2021/11/18 09:43:25;;;;;;;17.85;7.32;;;;;;;;;;4122557;28;20122;-54
2021/11/18 09:45:29;;;;;;;12.23;6.38;;;;;;;;;;4128225;28;20080;-50
2021/11/18 09:48:09;;;;;;;12.70;5.72;;;;;;;;;;4146877;28;20741;-49
2021/11/18 09:50:38;;;;;;;16.63;6.30;;;;;;;;;;4117223;28;20119;-46
2021/11/18 09:53:28;;;;;;;11.77;6.18;;;;;;;;;;4143086;28;20068;-51
2021/11/18 09:56:12;;;;;;;12.70;5.70;;;;;;;;;;4124790;28;20107;-51
2021/11/18 09:58:23;;;;;;;15.80;6.53;;;;;;;;;;4099016;28;20053;-52
2021/11/18 10:00:32;;;;;;;12.43;5.80;;;;;;;;;;4141249;28;20104;-51
2021/11/18 10:02:50;;;;;;;11.65;5.45;;;;;;;;;;4138417;28;20050;-54
2021/11/18 10:04:58;;;;;;;9.30;5.20;;;;;;;;;;4155264;28;20110;-52
2021/11/18 10:07:02;;;;;;;10.82;5.40;;;;;;;;;;4140620;28;20125;-55
2021/11/18 10:09:20;;;;;;;12.98;5.20;;;;;;;;;;4157193;28;20554;-55
2021/11/18 10:11:38;;;;;;;9.27;4.47;;;;;;;;;;4145104;28;20076;-52
2021/11/18 10:14:02;;;;;;;9.65;4.57;;;;;;;;;;4128948;28;20169;-50
2021/11/18 10:16:11;;;;;;;10.75;5.20;;;;;;;;;;4140443;28;20068;-54
2021/11/18 10:18:41;;;;;;;8.70;4.20;;;;;;;;;;4164268;28;20136;-50
2021/11/18 10:20:43;;;;;;;;;;;;;;;;;;4157314;28;20670;-54
2021/11/18 10:22:47;;;;;;;10.93;4.60;;;;;;;;;;4145119;28;19924;-54
2021/11/18 10:24:51;;;;;;;10.20;4.03;;;;;;;;;;4146184;28;20061;-53
2021/11/18 10:26:58;;;;;;;8.20;3.67;;;;;;;;;;4164887;28;20539;-52
2021/11/18 10:28:59;;;;;;;9.30;3.72;;;;;;;;;;4162674;28;20476;-50
2021/11/18 10:31:15;;;;;;;7.70;3.92;;;;;;;;;;4159134;28;20085;-53
2021/11/18 10:34:18;;;;;;;6.03;3.70;;;;;;;;;;4166743;28;20064;-54
2021/11/18 10:36:46;;;;;;;7.72;3.08;;;;;;;;;;4089378;28;20086;-52
2021/11/18 10:38:57;;;;;;;7.65;3.58;;;;;;;;;;4125489;28;20065;-51
2021/11/18 10:41:04;;;;;;;7.15;3.30;;;;;;;;;;4162009;28;20056;-48
2021/11/18 10:43:06;;;;;;;6.82;3.17;;;;;;;;;;4161286;28;20194;-52
2021/11/18 10:45:19;;;;;;;6.78;2.90;;;;;;;;;;4166367;28;20154;-52
2021/11/18 10:47:28;;;;;;;6.35;3.28;;;;;;;;;;4171242;28;20068;-52
2021/11/18 10:49:36;;;;;;;6.03;3.20;;;;;;;;;;4164501;28;20065;-51
2021/11/18 10:51:46;;;;;;;8.32;3.10;;;;;;;;;;4151414;28;20107;-50
2021/11/18 10:53:49;;;;;;;6.15;2.80;;;;;;;;;;4148692;28;20510;-50
2021/11/18 10:56:03;;;;;;;4.57;2.05;;;;;;;;;;4167252;28;20139;-51
2021/11/18 10:58:13;;;;;;;7.68;2.47;;;;;;;;;;4158694;28;20068;-51
2021/11/18 11:00:17;;;;;;;4.78;2.47;;;;;;;;;;4164968;28;20060;-51
2021/11/18 11:02:21;;;;;;;5.28;2.30;;;;;;;;;;4158638;28;20072;-49
2021/11/18 11:04:41;;;;;;;7.15;2.40;;;;;;;;;;4165519;28;20084;-53
2021/11/18 11:06:45;;;;;;;4.93;2.00;;;;;;;;;;4167823;28;21430;-51
2021/11/18 11:08:51;;;;;;;4.63;2.10;;;;;;;;;;4165419;28;20053;-54
2021/11/18 11:11:07;;;;;;;4.68;2.22;;;;;;;;;;4164837;28;20063;-48
2021/11/18 11:13:19;;;;;;;3.15;1.88;;;;;;;;;;4162272;28;20068;-51
2021/11/18 11:15:39;;;;;;;4.32;2.10;;;;;;;;;;4144389;28;20108;-48
2021/11/18 11:17:58;;;;;;;3.95;1.75;;;;;;;;;;4159536;28;20343;-49
2021/11/18 11:20:20;;;;;;;3.65;1.65;;;;;;;;;;4155723;28;20429;-51
2021/11/18 11:22:46;;;;;;;4.75;1.20;;;;;;;;;;4153437;28;20057;-53
2021/11/18 11:25:07;;;;;;;2.95;1.60;;;;;;;;;;4159331;28;20099;-50
2021/11/18 11:27:26;;;;;;;7.82;1.50;;;;;;;;;;4157219;28;20072;-49
2021/11/18 11:29:48;;;;;;;3.05;1.50;;;;;;;;;;4156240;28;20107;-52
2021/11/18 11:32:02;;;;;;;2.28;1.23;;;;;;;;;;4157910;28;20453;-51
2021/11/18 11:34:13;;;;;;;4.40;1.30;;;;;;;;;;4156017;28;20049;-50
2021/11/18 11:36:31;;;;;;;2.75;1.27;;;;;;;;;;4144957;28;20057;-51
2021/11/18 11:38:55;;;;;;;1.92;1.17;;;;;;;;;;4157085;28;20374;-52
2021/11/18 11:41:08;;;;;;;2.92;1.20;;;;;;;;;;4156614;28;20049;-54
2021/11/18 11:43:34;;;;;;;3.45;1.73;;;;;;;;;;4143854;28;21976;-47
2021/11/18 11:45:45;;;;;;;5.47;2.38;;;;;;;;;;4158024;28;20049;-49
2021/11/18 11:47:49;;;;;;;7.53;2.65;;;;;;;;;;4141204;28;20053;-51
2021/11/18 11:50:17;;;;;;;5.70;2.45;;;;;;;;;;4157011;28;20057;-47
2021/11/18 11:52:48;;;;;;;6.43;3.13;;;;;;;;;;4120226;28;20102;-47
2021/11/18 11:55:32;;;;;;;9.02;3.35;;;;;;;;;;4138370;28;20065;-49
2021/11/18 11:58:09;;;;;;;8.18;3.58;;;;;;;;;;4151142;28;20076;-47
2021/11/18 12:00:24;;;;;;;9.90;4.15;;;;;;;;;;4140118;28;20084;-50
2021/11/18 12:02:51;;;;;;;8.10;3.53;;;;;;;;;;4136380;28;20068;-49
2021/11/18 12:05:08;;;;;;;9.93;3.67;;;;;;;;;;4140725;28;20229;-48
2021/11/18 12:07:29;;;;;;;9.27;3.70;;;;;;;;;;4152248;28;20488;-52
2021/11/18 12:09:48;;;;;;;6.05;3.15;;;;;;;;;;4160611;28;20053;-48
2021/11/18 12:11:57;;;;;;;8.65;3.90;;;;;;;;;;4160548;28;20119;-46
2021/11/18 12:14:24;;;;;;;8.13;3.30;;;;;;;;;;4139205;28;20100;-48
2021/11/18 12:16:31;;;;;;;8.48;3.65;;;;;;;;;;4158557;28;20053;-50
2021/11/18 12:18:46;;;;;;;7.78;3.47;;;;;;;;;;4156100;28;20065;-51
2021/11/18 12:20:47;;;;;;;6.60;2.97;;;;;;;;;;4146167;28;20781;-50
2021/11/18 12:22:54;;;;;;;5.88;3.10;;;;;;;;;;4160255;28;20107;-47
2021/11/18 12:25:15;;;;;;;6.10;2.80;;;;;;;;;;4161848;28;20049;-50
2021/11/18 12:27:18;;;;;;;5.75;2.58;;;;;;;;;;4161589;28;20516;-50
2021/11/18 12:29:40;;;;;;;4.93;2.33;;;;;;;;;;4158872;28;20063;-50
2021/11/18 12:32:08;;;;;;;6.13;2.45;;;;;;;;;;4154844;28;20194;-52
2021/11/18 12:34:12;;;;;;;4.45;2.45;;;;;;;;;;4154002;28;20107;-49
2021/11/18 12:36:24;;;;;;;4.05;2.20;;;;;;;;;;4151507;28;20068;-49
2021/11/18 12:38:36;;;;;;;8.70;2.60;;;;;;;;;;4150239;28;20144;-47